Time;durP1;ratioP1;P1;durP2;ratioP2;P2;SDS_P1;SDS_P2;PMS_P1;PMS_P2;Temp;Humidity;BMP_temperature;BMP_pressure;BME280_temperature;BME280_humidity;BME280_pressure;Samples;Min_cycle;Max_cycle;Signal;HPM_P1;HPM_P2
2022/12/09 00:01:11;;;;;;;32.38;11.35;;;2.90;99.90;;;;;;5115330;27;20051;-81
2022/12/09 00:03:37;;;;;;;40.47;12.02;;;2.80;99.90;;;;;;5133961;27;20046;-79
2022/12/09 00:06:14;;;;;;;33.50;11.35;;;2.80;99.90;;;;;;5099291;27;20407;-78
2022/12/09 00:08:40;;;;;;;35.92;11.25;;;2.80;99.90;;;;;;5133624;27;20067;-78
2022/12/09 00:11:06;;;;;;;36.47;11.85;;;2.80;99.90;;;;;;5133587;27;20050;-79
2022/12/09 00:13:32;;;;;;;38.80;12.90;;;2.80;99.90;;;;;;5133459;27;20047;-78
2022/12/09 00:15:58;;;;;;;43.80;12.82;;;2.80;99.90;;;;;;5115036;27;20307;-78
2022/12/09 00:18:24;;;;;;;42.10;12.65;;;2.80;99.90;;;;;;5115021;28;20043;-78
2022/12/09 00:20:50;;;;;;;38.60;11.77;;;2.90;99.90;;;;;;5133627;27;20395;-79
2022/12/09 00:23:16;;;;;;;39.05;12.02;;;2.80;99.90;;;;;;5133242;27;20039;-77
2022/12/09 00:25:42;;;;;;;38.15;12.70;;;2.80;99.90;;;;;;5098790;27;20124;-78
2022/12/09 00:28:07;;;;;;;38.17;12.27;;;2.80;99.90;;;;;;5133034;27;20047;-78
2022/12/09 00:30:33;;;;;;;40.55;12.50;;;2.80;99.90;;;;;;5133231;28;20115;-78
2022/12/09 00:32:59;;;;;;;38.08;11.90;;;2.80;99.90;;;;;;5114787;28;20047;-78
2022/12/09 00:35:24;;;;;;;35.03;11.68;;;2.90;99.90;;;;;;5132711;28;20043;-80
2022/12/09 00:37:50;;;;;;;37.92;12.07;;;2.90;99.90;;;;;;5115523;28;20055;-78
2022/12/09 00:40:16;;;;;;;36.72;11.60;;;2.90;99.90;;;;;;5098715;28;20104;-78
2022/12/09 00:42:41;;;;;;;39.72;11.68;;;2.90;99.90;;;;;;5133455;28;20246;-78
2022/12/09 00:45:07;;;;;;;37.03;12.55;;;2.90;99.90;;;;;;5133122;28;20063;-78
2022/12/09 00:47:34;;;;;;;38.25;11.63;;;2.90;99.90;;;;;;5133208;28;20087;-79
2022/12/09 00:50:00;;;;;;;38.25;11.82;;;2.90;99.90;;;;;;5133250;28;20049;-77
2022/12/09 00:52:25;;;;;;;39.90;11.48;;;3.00;99.90;;;;;;5133165;28;20039;-79
2022/12/09 00:54:51;;;;;;;33.67;12.52;;;2.90;99.90;;;;;;5133182;28;20051;-83
2022/12/09 00:57:17;;;;;;;38.42;12.00;;;2.90;99.90;;;;;;5132899;28;20043;-77
2022/12/09 00:59:42;;;;;;;32.92;11.77;;;2.90;99.90;;;;;;5133362;28;20130;-78
2022/12/09 01:02:08;;;;;;;42.30;12.23;;;2.90;99.90;;;;;;5133072;27;20479;-77
2022/12/09 01:04:34;;;;;;;35.78;11.63;;;2.90;99.90;;;;;;5136829;27;20043;-77
2022/12/09 01:07:00;;;;;;;36.50;11.80;;;2.90;99.90;;;;;;5137080;27;20050;-77
2022/12/09 01:09:25;;;;;;;36.00;11.20;;;2.90;99.90;;;;;;5137352;27;20379;-78
2022/12/09 01:11:51;;;;;;;38.90;11.80;;;2.90;99.90;;;;;;5101937;27;20141;-78
2022/12/09 01:14:16;;;;;;;33.67;11.68;;;2.90;99.90;;;;;;5119172;27;20471;-78
2022/12/09 01:16:42;;;;;;;36.10;10.80;;;2.90;99.90;;;;;;5137363;27;20487;-78
2022/12/09 01:19:11;;;;;;;36.38;11.85;;;2.80;99.90;;;;;;5118920;27;20043;-78
2022/12/09 01:21:37;;;;;;;36.00;11.40;;;2.90;99.90;;;;;;5137014;27;20392;-79
2022/12/09 01:24:10;;;;;;;40.50;12.15;;;2.90;99.90;;;;;;5119536;27;20150;-77
2022/12/09 01:26:36;;;;;;;36.80;11.15;;;2.80;99.90;;;;;;5138829;27;20479;-77
2022/12/09 01:29:02;;;;;;;39.40;11.68;;;2.90;99.90;;;;;;5137778;27;20098;-79
2022/12/09 01:31:28;;;;;;;41.65;12.95;;;2.80;99.90;;;;;;5125654;27;20047;-80
2022/12/09 01:33:55;;;;;;;38.05;12.35;;;2.80;99.90;;;;;;5108815;27;20102;-78
2022/12/09 01:36:24;;;;;;;36.88;12.23;;;2.80;99.90;;;;;;5143330;27;20438;-83
2022/12/09 01:38:49;;;;;;;38.30;11.55;;;2.80;99.90;;;;;;5140053;27;20559;-78
2022/12/09 01:41:17;;;;;;;37.95;12.30;;;2.90;99.90;;;;;;5140789;27;20043;-78
2022/12/09 01:43:43;;;;;;;37.45;11.48;;;2.80;99.90;;;;;;5139991;27;20372;-78
2022/12/09 01:46:09;;;;;;;36.30;11.25;;;2.80;99.90;;;;;;5138996;27;20512;-78
2022/12/09 01:48:45;;;;;;;50.00;12.57;;;2.70;99.90;;;;;;5137061;27;20133;-79
2022/12/09 01:51:20;;;;;;;45.30;13.17;;;2.70;99.90;;;;;;5136234;27;20050;-79
2022/12/09 01:53:49;;;;;;;51.97;13.25;;;2.70;99.90;;;;;;5118434;27;20070;-79
2022/12/09 01:56:20;;;;;;;41.40;12.50;;;2.80;99.90;;;;;;5117327;27;20039;-81
2022/12/09 01:58:47;;;;;;;36.70;11.88;;;2.70;99.90;;;;;;5136422;27;20054;-79
2022/12/09 02:01:15;;;;;;;38.30;11.48;;;2.70;99.90;;;;;;5135896;27;20054;-78
2022/12/09 02:03:41;;;;;;;36.25;11.75;;;2.70;99.90;;;;;;5136178;27;20043;-79
2022/12/09 02:06:07;;;;;;;37.10;12.23;;;2.70;99.90;;;;;;5136254;27;20495;-80
2022/12/09 02:08:32;;;;;;;35.33;10.77;;;2.80;99.90;;;;;;5135649;27;20222;-81
2022/12/09 02:11:13;;;;;;;34.75;10.95;;;2.70;99.90;;;;;;5135917;27;20509;-81
2022/12/09 02:14:06;;;;;;;34.47;10.90;;;2.70;99.90;;;;;;5117959;27;20039;-78
2022/12/09 02:16:44;;;;;;;32.58;10.63;;;2.70;99.90;;;;;;5116860;27;20067;-77
2022/12/09 02:19:24;;;;;;;;;;;2.80;99.90;;;;;;5118478;27;20047;-77
2022/12/09 02:21:57;;;;;;;31.83;11.30;;;2.70;99.90;;;;;;5117254;27;19997;-77
2022/12/09 02:24:42;;;;;;;36.13;11.85;;;2.70;99.90;;;;;;5117793;27;20047;-77
2022/12/09 02:27:22;;;;;;;35.78;10.77;;;2.70;99.90;;;;;;5135815;27;20130;-77
2022/12/09 02:30:02;;;;;;;39.60;11.63;;;2.70;99.90;;;;;;5117603;27;20086;-77
2022/12/09 02:32:46;;;;;;;40.63;11.48;;;2.70;99.90;;;;;;5118057;27;20134;-77
2022/12/09 02:35:15;;;;;;;37.33;10.93;;;2.70;99.90;;;;;;5117130;27;20062;-77
2022/12/09 02:37:52;;;;;;;37.20;10.98;;;2.70;99.90;;;;;;5135496;27;20047;-77
2022/12/09 02:40:31;;;;;;;38.55;11.43;;;2.70;99.90;;;;;;5135518;27;20039;-78
2022/12/09 02:42:58;;;;;;;39.75;12.80;;;2.70;99.90;;;;;;5117015;27;20043;-78
2022/12/09 02:45:28;;;;;;;38.97;11.68;;;2.70;99.90;;;;;;5135925;27;20127;-77
2022/12/09 02:47:57;;;;;;;35.10;10.93;;;2.70;99.90;;;;;;5117100;27;20042;-77
2022/12/09 02:50:26;;;;;;;42.38;12.15;;;2.60;99.90;;;;;;5117792;27;20047;-77
2022/12/09 02:52:53;;;;;;;35.92;11.82;;;2.70;99.90;;;;;;5136129;27;20083;-77
2022/12/09 02:55:21;;;;;;;39.42;11.80;;;2.60;99.90;;;;;;5116888;27;20066;-77
2022/12/09 02:57:51;;;;;;;39.08;11.40;;;2.60;99.90;;;;;;5116619;27;20069;-77
2022/12/09 03:00:17;;;;;;;38.15;12.77;;;2.70;99.90;;;;;;5135122;27;20483;-79
2022/12/09 03:02:48;;;;;;;41.55;12.05;;;2.60;99.90;;;;;;5116506;27;20082;-77
2022/12/09 03:05:19;;;;;;;37.35;11.35;;;2.70;99.90;;;;;;5135409;27;20049;-79
2022/12/09 03:07:50;;;;;;;40.95;12.70;;;2.70;99.90;;;;;;5135575;27;20043;-79
2022/12/09 03:10:46;;;;;;;35.63;11.68;;;2.70;99.90;;;;;;5135296;27;20142;-79
2022/12/09 03:13:24;;;;;;;37.17;11.45;;;2.70;99.90;;;;;;5134867;27;20085;-79
2022/12/09 03:15:58;;;;;;;38.75;12.63;;;2.70;99.90;;;;;;5116323;27;20043;-77
2022/12/09 03:18:28;;;;;;;41.35;12.10;;;2.70;99.90;;;;;;5135429;27;20100;-76
2022/12/09 03:20:54;;;;;;;37.85;12.23;;;2.60;99.90;;;;;;5115826;27;20058;-80
2022/12/09 03:23:23;;;;;;;36.15;11.88;;;2.60;99.90;;;;;;5134147;27;20047;-79
2022/12/09 03:25:52;;;;;;;41.50;12.43;;;2.60;99.90;;;;;;5134070;27;20100;-76
2022/12/09 03:28:23;;;;;;;36.85;12.65;;;2.70;99.90;;;;;;5134391;27;20050;-77
2022/12/09 03:30:50;;;;;;;39.10;12.20;;;2.70;99.90;;;;;;5115912;27;20051;-77
2022/12/09 03:33:19;;;;;;;39.80;13.05;;;2.70;99.90;;;;;;5116124;27;20047;-77
2022/12/09 03:35:52;;;;;;;38.63;12.55;;;2.70;99.90;;;;;;5116249;27;20093;-78
2022/12/09 03:38:20;;;;;;;40.78;13.38;;;2.70;99.90;;;;;;5116082;27;20055;-77
2022/12/09 03:40:52;;;;;;;40.40;13.70;;;2.70;99.90;;;;;;5115586;27;20484;-77
2022/12/09 03:43:23;;;;;;;40.90;13.77;;;2.70;99.90;;;;;;5134813;27;20459;-79
2022/12/09 03:45:54;;;;;;;39.10;14.32;;;2.70;99.90;;;;;;5134432;27;20043;-77
2022/12/09 03:48:21;;;;;;;41.75;12.73;;;2.70;99.90;;;;;;5116116;27;20043;-77
2022/12/09 03:51:11;;;;;;;42.42;13.40;;;2.60;99.90;;;;;;5116154;27;20051;-80
2022/12/09 03:54:14;;;;;;;42.15;13.80;;;2.60;99.90;;;;;;5134060;27;20043;-78
2022/12/09 03:56:44;;;;;;;36.65;12.50;;;2.60;99.90;;;;;;5134447;27;20050;-79
2022/12/09 03:59:12;;;;;;;39.38;12.35;;;2.60;99.90;;;;;;5115497;27;20142;-77
2022/12/09 04:01:40;;;;;;;38.40;12.30;;;2.60;99.90;;;;;;5115924;27;20074;-83
2022/12/09 04:04:07;;;;;;;34.00;11.57;;;2.60;99.90;;;;;;5133933;27;20050;-77
2022/12/09 04:06:33;;;;;;;38.45;12.27;;;2.60;99.90;;;;;;5082537;27;20047;-78
2022/12/09 04:08:59;;;;;;;41.88;12.23;;;2.60;99.90;;;;;;5115373;27;20055;-77
2022/12/09 04:11:25;;;;;;;36.92;12.50;;;2.50;99.90;;;;;;5133774;27;20058;-78
2022/12/09 04:13:50;;;;;;;46.35;12.40;;;2.50;99.90;;;;;;5133737;27;20138;-78
2022/12/09 04:16:16;;;;;;;39.25;11.48;;;2.60;99.90;;;;;;5134163;27;20074;-77
2022/12/09 04:18:42;;;;;;;32.35;11.40;;;2.60;99.90;;;;;;5102826;27;20043;-79
2022/12/09 04:21:09;;;;;;;39.08;12.68;;;2.50;99.90;;;;;;5136944;27;20039;-77
2022/12/09 04:23:35;;;;;;;41.15;12.43;;;2.50;99.90;;;;;;5136531;27;20047;-77
2022/12/09 04:26:02;;;;;;;40.67;12.15;;;2.60;99.90;;;;;;5135341;27;20054;-77
2022/12/09 04:28:27;;;;;;;38.17;11.40;;;2.60;99.90;;;;;;5099914;27;20095;-78
2022/12/09 04:30:53;;;;;;;41.50;12.60;;;2.50;99.90;;;;;;5135632;27;20130;-77
2022/12/09 04:33:19;;;;;;;38.97;12.63;;;2.50;99.90;;;;;;5117571;28;20047;-80
2022/12/09 04:35:44;;;;;;;39.40;12.50;;;2.60;99.90;;;;;;5135146;28;20134;-78
2022/12/09 04:38:10;;;;;;;38.35;13.10;;;2.50;99.90;;;;;;5118002;27;20128;-79
2022/12/09 04:40:37;;;;;;;39.10;12.93;;;2.50;99.90;;;;;;5120476;27;20043;-79
2022/12/09 04:43:02;;;;;;;43.08;13.45;;;2.50;99.90;;;;;;5137895;27;20493;-79
2022/12/09 04:45:28;;;;;;;38.80;12.77;;;2.50;99.90;;;;;;5137828;27;20190;-79
2022/12/09 04:47:54;;;;;;;38.30;12.48;;;2.40;99.90;;;;;;5137944;27;20122;-79
2022/12/09 04:50:20;;;;;;;39.13;12.55;;;2.40;99.90;;;;;;5120047;27;20039;-79
2022/12/09 04:52:45;;;;;;;36.17;11.82;;;2.40;99.90;;;;;;5137324;27;20116;-78
2022/12/09 04:55:13;;;;;;;39.35;12.52;;;2.40;99.90;;;;;;5137609;27;20043;-79
2022/12/09 04:57:38;;;;;;;42.63;12.40;;;2.50;99.90;;;;;;5137441;27;20075;-80
2022/12/09 05:00:05;;;;;;;40.10;11.68;;;2.40;99.90;;;;;;5137836;27;20209;-77
2022/12/09 05:02:31;;;;;;;37.88;12.13;;;2.40;99.90;;;;;;5137322;27;20070;-80
2022/12/09 05:05:00;;;;;;;41.22;13.07;;;2.40;99.90;;;;;;5137270;27;20043;-79
2022/12/09 05:07:32;;;;;;;37.65;12.32;;;2.30;99.90;;;;;;5102745;27;20043;-78
2022/12/09 05:09:57;;;;;;;40.33;12.38;;;2.30;99.90;;;;;;5118438;27;20058;-79
2022/12/09 05:12:24;;;;;;;43.15;13.57;;;2.30;99.90;;;;;;5137323;27;20364;-77
2022/12/09 05:14:50;;;;;;;39.10;11.82;;;2.30;99.90;;;;;;5137229;27;20047;-78
2022/12/09 05:17:16;;;;;;;39.55;12.30;;;2.30;99.90;;;;;;5118691;27;20046;-78
2022/12/09 05:19:41;;;;;;;38.33;11.65;;;2.40;99.90;;;;;;5137199;27;20387;-78
2022/12/09 05:22:07;;;;;;;39.50;13.05;;;2.30;99.90;;;;;;5136836;27;20065;-78
2022/12/09 05:24:33;;;;;;;40.55;12.85;;;2.20;99.90;;;;;;5118299;27;20043;-79
2022/12/09 05:26:59;;;;;;;40.17;12.95;;;2.30;99.90;;;;;;5136746;27;20122;-78
2022/12/09 05:29:24;;;;;;;41.30;13.00;;;2.30;99.90;;;;;;5118620;27;20440;-79
2022/12/09 05:31:50;;;;;;;51.15;15.98;;;2.30;99.90;;;;;;5137058;27;20079;-79
2022/12/09 05:34:16;;;;;;;52.50;15.50;;;2.30;99.90;;;;;;5118335;27;20088;-80
2022/12/09 05:36:42;;;;;;;47.63;15.48;;;2.30;99.90;;;;;;5136362;27;20039;-82
2022/12/09 05:39:08;;;;;;;53.72;16.52;;;2.30;99.90;;;;;;5137028;27;20053;-81
2022/12/09 05:41:34;;;;;;;46.50;14.40;;;2.30;99.90;;;;;;5136473;27;20078;-79
2022/12/09 05:44:00;;;;;;;43.13;14.05;;;2.30;99.90;;;;;;5118130;27;20525;-78
2022/12/09 05:46:26;;;;;;;48.45;15.40;;;2.30;99.90;;;;;;5118700;27;20070;-78
2022/12/09 05:48:52;;;;;;;53.60;16.33;;;2.30;99.90;;;;;;5136095;27;20047;-79
2022/12/09 05:51:23;;;;;;;52.40;15.70;;;2.30;99.90;;;;;;5117817;27;20043;-79
2022/12/09 05:53:49;;;;;;;48.38;15.30;;;2.20;99.90;;;;;;5136480;27;20160;-79
2022/12/09 05:56:16;;;;;;;43.88;13.88;;;2.30;99.90;;;;;;5118166;27;20075;-78
2022/12/09 05:58:42;;;;;;;44.50;13.80;;;2.30;99.90;;;;;;5118231;27;20043;-77
2022/12/09 06:01:08;;;;;;;41.20;13.32;;;2.40;99.90;;;;;;5100987;27;20038;-78
2022/12/09 06:03:35;;;;;;;45.42;14.27;;;2.30;99.90;;;;;;5117860;27;20047;-77
2022/12/09 06:06:08;;;;;;;41.90;14.10;;;2.30;99.90;;;;;;5135862;27;20498;-82
2022/12/09 06:08:35;;;;;;;42.03;13.65;;;2.30;99.90;;;;;;5117784;27;20062;-79
2022/12/09 06:11:01;;;;;;;44.42;15.32;;;2.20;99.90;;;;;;5136419;27;20066;-79
2022/12/09 06:13:27;;;;;;;42.45;14.20;;;2.20;99.90;;;;;;5145655;27;20047;-80
2022/12/09 06:15:53;;;;;;;43.08;14.38;;;2.10;99.90;;;;;;5148390;27;20050;-82
2022/12/09 06:18:19;;;;;;;50.05;14.80;;;2.00;99.90;;;;;;5129425;27;20049;-80
2022/12/09 06:20:45;;;;;;;42.90;14.10;;;2.00;99.90;;;;;;5142584;27;20129;-80
2022/12/09 06:23:10;;;;;;;42.67;13.98;;;1.90;99.90;;;;;;5141900;27;20523;-79
2022/12/09 06:25:36;;;;;;;43.47;14.73;;;1.90;99.90;;;;;;5140357;27;20043;-80
2022/12/09 06:28:03;;;;;;;44.85;13.80;;;1.80;99.90;;;;;;5137549;27;20186;-79
2022/12/09 06:30:29;;;;;;;43.38;14.63;;;1.80;99.90;;;;;;5139529;27;20127;-79
2022/12/09 06:32:55;;;;;;;45.50;14.38;;;1.70;99.90;;;;;;5141630;27;20092;-79
2022/12/09 06:35:20;;;;;;;41.58;13.77;;;1.60;99.90;;;;;;5118830;27;20095;-83
2022/12/09 06:37:49;;;;;;;44.25;13.40;;;1.50;99.90;;;;;;5135721;27;20355;-79
2022/12/09 06:40:15;;;;;;;44.65;14.00;;;1.30;99.90;;;;;;5135527;27;20448;-78
2022/12/09 06:42:41;;;;;;;50.55;15.38;;;1.30;99.90;;;;;;5100775;27;20479;-79
2022/12/09 06:45:07;;;;;;;49.72;15.77;;;1.30;99.90;;;;;;5118945;27;20160;-78
2022/12/09 06:47:32;;;;;;;48.20;14.45;;;1.10;99.90;;;;;;5119456;27;20471;-78
2022/12/09 06:50:00;;;;;;;47.75;14.05;;;1.00;99.90;;;;;;5118195;27;20043;-80
2022/12/09 06:52:26;;;;;;;49.08;14.82;;;1.00;99.90;;;;;;5117680;27;20100;-79
2022/12/09 06:54:52;;;;;;;51.08;16.95;;;0.90;99.90;;;;;;5117674;27;20370;-78
2022/12/09 06:57:17;;;;;;;53.05;18.17;;;0.90;99.90;;;;;;5135298;27;20035;-79
2022/12/09 06:59:43;;;;;;;48.45;17.27;;;0.80;99.90;;;;;;5117030;27;20031;-78
2022/12/09 07:02:10;;;;;;;47.53;15.48;;;0.70;99.90;;;;;;5134264;27;20045;-77
2022/12/09 07:04:36;;;;;;;50.03;16.52;;;0.70;99.90;;;;;;5116642;27;20043;-77
2022/12/09 07:07:01;;;;;;;45.15;15.73;;;0.60;99.90;;;;;;5116513;27;20122;-77
2022/12/09 07:09:27;;;;;;;47.92;16.02;;;0.50;99.90;;;;;;5135546;27;20332;-77
2022/12/09 07:11:53;;;;;;;50.65;15.48;;;0.40;99.90;;;;;;5135206;27;20039;-76
2022/12/09 07:14:18;;;;;;;48.67;15.88;;;0.40;99.90;;;;;;5116870;27;20039;-78
2022/12/09 07:16:44;;;;;;;51.15;16.10;;;0.40;99.90;;;;;;5134935;27;20035;-77
2022/12/09 07:19:21;;;;;;;52.03;16.25;;;0.30;99.90;;;;;;5135226;27;20043;-77
2022/12/09 07:21:48;;;;;;;51.47;16.20;;;0.20;99.90;;;;;;5135404;27;20540;-79
2022/12/09 07:24:15;;;;;;;48.38;15.23;;;0.20;99.90;;;;;;5134705;27;20042;-77
2022/12/09 07:26:40;;;;;;;52.27;17.30;;;0.20;99.90;;;;;;5134776;27;20487;-77
2022/12/09 07:29:06;;;;;;;49.28;16.55;;;0.20;99.90;;;;;;5116119;27;20088;-78
2022/12/09 07:31:33;;;;;;;58.50;18.67;;;0.10;99.90;;;;;;5134819;27;20094;-78
2022/12/09 07:33:59;;;;;;;55.72;18.75;;;0.10;99.90;;;;;;5135094;27;20042;-77
2022/12/09 07:36:28;;;;;;;59.97;18.63;;;0.10;99.90;;;;;;5134437;27;20463;-79
2022/12/09 07:38:58;;;;;;;58.35;19.23;;;0.00;99.90;;;;;;5134367;27;20062;-77
2022/12/09 07:41:24;;;;;;;55.53;18.75;;;-0.10;99.90;;;;;;5134600;27;20479;-77
2022/12/09 07:43:50;;;;;;;58.03;18.58;;;-0.10;99.90;;;;;;5134764;27;20207;-78
2022/12/09 07:46:18;;;;;;;56.90;18.40;;;-0.20;99.90;;;;;;5134340;27;20035;-81
2022/12/09 07:48:43;;;;;;;63.00;19.08;;;-0.10;99.90;;;;;;5134298;27;20095;-78
2022/12/09 07:51:10;;;;;;;54.58;18.20;;;-0.20;99.90;;;;;;5133920;27;20043;-79
2022/12/09 07:53:36;;;;;;;57.13;18.05;;;-0.20;99.90;;;;;;5134099;27;20034;-78
2022/12/09 07:56:05;;;;;;;66.75;22.10;;;-0.30;99.90;;;;;;5116614;27;20421;-78
2022/12/09 07:58:31;;;;;;;64.95;21.38;;;-0.30;99.90;;;;;;5134181;27;20096;-78
2022/12/09 08:01:03;;;;;;;69.93;22.70;;;-0.30;99.90;;;;;;5134663;27;20379;-78
2022/12/09 08:03:28;;;;;;;63.47;20.60;;;-0.20;99.90;;;;;;5134741;27;20163;-77
2022/12/09 08:05:54;;;;;;;71.13;22.55;;;-0.20;99.90;;;;;;5134101;27;20035;-78
2022/12/09 08:08:19;;;;;;;68.35;22.33;;;-0.20;99.90;;;;;;5115260;27;20355;-77
2022/12/09 08:10:45;;;;;;;70.85;20.77;;;-0.30;99.90;;;;;;5116282;27;20043;-78
2022/12/09 08:13:11;;;;;;;82.72;27.48;;;-0.30;99.90;;;;;;5115909;27;20339;-78
2022/12/09 08:15:37;;;;;;;81.72;24.83;;;-0.30;99.90;;;;;;5116166;27;20047;-77
2022/12/09 08:18:03;;;;;;;73.90;22.30;;;-0.30;99.90;;;;;;5116489;27;20051;-77
2022/12/09 08:20:30;;;;;;;68.95;22.38;;;-0.30;99.90;;;;;;5115828;27;20088;-76
2022/12/09 08:22:56;;;;;;;62.53;19.58;;;-0.30;99.90;;;;;;5098403;27;20043;-76
2022/12/09 08:25:22;;;;;;;61.45;20.00;;;-0.30;99.90;;;;;;5099003;28;20035;-76
2022/12/09 08:27:48;;;;;;;63.78;20.42;;;-0.20;99.90;;;;;;5115310;28;20039;-76
2022/12/09 08:30:15;;;;;;;65.65;22.17;;;-0.20;99.90;;;;;;5134285;27;20119;-76
2022/12/09 08:32:40;;;;;;;68.93;22.58;;;-0.20;99.90;;;;;;5134050;28;20397;-77
2022/12/09 08:35:13;;;;;;;66.93;21.77;;;-0.20;99.90;;;;;;5116188;28;20047;-76
2022/12/09 08:37:43;;;;;;;78.57;23.95;;;-0.10;99.90;;;;;;5134146;28;20115;-76
2022/12/09 08:40:09;;;;;;;71.95;23.13;;;-0.10;99.90;;;;;;5115514;28;20129;-76
2022/12/09 08:42:36;;;;;;;75.22;24.20;;;0.00;99.90;;;;;;5133567;28;20039;-79
2022/12/09 08:45:02;;;;;;;73.30;22.63;;;0.00;99.90;;;;;;5133679;28;20074;-79
2022/12/09 08:47:29;;;;;;;77.00;22.58;;;0.00;99.90;;;;;;5133906;28;20449;-77
2022/12/09 08:49:54;;;;;;;74.20;22.70;;;0.10;99.90;;;;;;5133585;28;20092;-78
2022/12/09 08:52:20;;;;;;;73.53;23.35;;;0.10;99.90;;;;;;5115031;28;20054;-79
2022/12/09 08:54:46;;;;;;;74.97;24.33;;;0.10;99.90;;;;;;5133783;28;20122;-78
2022/12/09 08:57:12;;;;;;;77.63;23.88;;;0.20;99.90;;;;;;5115117;28;20449;-78
2022/12/09 08:59:37;;;;;;;81.40;24.35;;;0.30;99.90;;;;;;5133355;28;20075;-78
2022/12/09 09:02:03;;;;;;;82.43;23.70;;;0.40;99.90;;;;;;5115019;28;20071;-76
2022/12/09 09:04:30;;;;;;;87.05;24.25;;;0.60;99.90;;;;;;5133346;28;20042;-77
2022/12/09 09:06:56;;;;;;;98.43;27.95;;;0.70;99.90;;;;;;5133341;28;20058;-76
2022/12/09 09:09:22;;;;;;;93.55;26.67;;;0.90;99.90;;;;;;5133419;28;20482;-76
2022/12/09 09:11:48;;;;;;;93.28;27.23;;;1.10;99.90;;;;;;5133327;28;20039;-79
2022/12/09 09:14:15;;;;;;;112.18;29.42;;;1.10;99.90;;;;;;5114937;28;20054;-79
2022/12/09 09:16:42;;;;;;;99.80;28.05;;;1.20;99.90;;;;;;5133036;28;20092;-79
2022/12/09 09:19:14;;;;;;;93.88;28.10;;;1.30;99.90;;;;;;5114927;28;20047;-79
2022/12/09 09:21:40;;;;;;;93.22;25.92;;;1.30;99.90;;;;;;5133916;28;20431;-83
2022/12/09 09:24:11;;;;;;;108.07;28.98;;;1.40;99.90;;;;;;5116269;27;20079;-80
2022/12/09 09:26:40;;;;;;;110.53;28.05;;;1.50;99.90;;;;;;5137005;27;20031;-80
2022/12/09 09:29:06;;;;;;;105.95;27.35;;;1.50;99.90;;;;;;5136539;27;20467;-78
2022/12/09 09:31:31;;;;;;;177.98;24.98;;;1.50;99.90;;;;;;5118977;27;20035;-76
2022/12/09 09:33:57;;;;;;;327.58;29.70;;;1.60;99.90;;;;;;5136575;27;20043;-77
2022/12/09 09:36:23;;;;;;;116.40;23.90;;;1.60;99.90;;;;;;5118621;27;20039;-77
2022/12/09 09:38:51;;;;;;;128.98;26.50;;;1.60;99.90;;;;;;5136605;27;20039;-78
2022/12/09 09:41:38;;;;;;;167.82;26.42;;;1.60;99.90;;;;;;5118537;27;20039;-77
2022/12/09 09:44:09;;;;;;;;;;;1.70;99.90;;;;;;5137321;27;20047;-77
2022/12/09 09:46:42;;;;;;;201.70;25.95;;;1.70;99.90;;;;;;5118831;27;20005;-76
2022/12/09 09:49:25;;;;;;;153.48;27.08;;;1.70;99.90;;;;;;5119023;27;20097;-77
2022/12/09 09:51:51;;;;;;;279.90;30.88;;;1.70;99.90;;;;;;5118392;27;20047;-77
2022/12/09 09:54:17;;;;;;;268.05;30.05;;;1.80;99.90;;;;;;5137077;27;20335;-77
2022/12/09 09:57:24;;;;;;;371.10;33.22;;;1.70;99.90;;;;;;5118434;27;20045;-78
2022/12/09 10:00:15;;;;;;;163.95;25.50;;;1.70;99.90;;;;;;5052745;28;20048;-77
2022/12/09 10:02:55;;;;;;;183.25;24.88;;;1.70;99.90;;;;;;5133361;27;20054;-77
2022/12/09 10:05:26;;;;;;;193.52;27.58;;;1.80;99.90;;;;;;5136799;27;20039;-77
2022/12/09 10:08:27;;;;;;;216.52;24.33;;;1.80;99.90;;;;;;5136473;27;20466;-77
2022/12/09 10:11:04;;;;;;;141.38;23.40;;;1.80;99.90;;;;;;5136584;27;20047;-79
2022/12/09 10:13:53;;;;;;;283.08;27.75;;;1.80;99.90;;;;;;5118726;27;20038;-77
2022/12/09 10:16:42;;;;;;;261.20;28.80;;;1.60;99.90;;;;;;5136164;27;20031;-77
2022/12/09 10:19:26;;;;;;;144.85;23.08;;;1.70;99.90;;;;;;5136228;27;20039;-78
2022/12/09 10:21:53;;;;;;;142.30;23.35;;;1.70;99.90;;;;;;5136671;27;20107;-77
2022/12/09 10:24:30;;;;;;;86.32;18.27;;;1.80;99.90;;;;;;5085708;27;20133;-78
2022/12/09 10:27:10;;;;;;;327.40;34.60;;;1.80;99.90;;;;;;5140097;27;20416;-78
2022/12/09 10:29:54;;;;;;;79.50;20.10;;;1.70;99.90;;;;;;5123055;27;20051;-78
2022/12/09 10:32:23;;;;;;;128.80;23.50;;;1.70;99.90;;;;;;5138109;27;20077;-79
2022/12/09 10:34:49;;;;;;;122.57;22.40;;;1.80;99.90;;;;;;5118082;27;20107;-77
2022/12/09 10:37:34;;;;;;;131.50;23.35;;;1.90;99.90;;;;;;5136806;27;20039;-76
2022/12/09 10:40:06;;;;;;;84.70;21.75;;;1.90;99.90;;;;;;5118148;27;20411;-76
2022/12/09 10:45:55;;;;;;;93.32;24.58;;;2.00;99.90;;;;;;5136160;27;20103;-76
2022/12/09 10:48:29;;;;;;;75.18;22.88;;;1.90;99.90;;;;;;5135417;27;20138;-77
2022/12/09 10:50:57;;;;;;;97.15;22.55;;;1.90;99.90;;;;;;5135818;27;20130;-76
2022/12/09 10:53:24;;;;;;;85.35;22.02;;;1.80;99.90;;;;;;5135461;27;20039;-76
2022/12/09 10:55:53;;;;;;;77.45;20.55;;;1.70;99.90;;;;;;5117438;27;20088;-76
2022/12/09 10:58:26;;;;;;;80.78;22.00;;;1.80;99.90;;;;;;5136085;27;20182;-76
2022/12/09 11:01:05;;;;;;;79.32;23.10;;;1.80;99.90;;;;;;5125273;27;20043;-78
2022/12/09 11:03:38;;;;;;;78.57;22.92;;;1.80;99.90;;;;;;5127745;27;20375;-79
2022/12/09 11:06:27;;;;;;;75.57;20.17;;;1.80;99.90;;;;;;5126679;27;20129;-80
2022/12/09 11:08:58;;;;;;;113.88;23.40;;;1.90;99.90;;;;;;5138657;27;20070;-77
2022/12/09 11:11:45;;;;;;;77.75;21.20;;;2.00;99.90;;;;;;5121518;27;20429;-77
2022/12/09 11:14:34;;;;;;;97.07;21.58;;;2.00;99.90;;;;;;5137853;27;20046;-78
2022/12/09 11:17:10;;;;;;;77.75;21.80;;;2.20;99.90;;;;;;5100562;27;20483;-76
2022/12/09 11:19:38;;;;;;;106.10;21.58;;;2.30;99.90;;;;;;5134970;27;20043;-76
2022/12/09 11:22:22;;;;;;;;;;;2.30;99.90;;;;;;5117040;27;20117;-76
2022/12/09 11:24:50;;;;;;;72.28;22.38;;;2.30;99.90;;;;;;5116488;27;19959;-77
2022/12/09 11:27:32;;;;;;;93.57;24.02;;;2.10;99.90;;;;;;5134510;27;20095;-77
2022/12/09 11:30:05;;;;;;;72.43;20.95;;;1.90;99.90;;;;;;5134839;27;20043;-79
2022/12/09 11:32:31;;;;;;;88.95;23.90;;;2.00;99.90;;;;;;5134588;27;20074;-77
2022/12/09 11:34:57;;;;;;;71.95;21.67;;;2.10;99.90;;;;;;5134681;27;20067;-76
2022/12/09 11:37:23;;;;;;;78.72;23.92;;;2.10;99.90;;;;;;5134374;27;20043;-77
2022/12/09 11:39:50;;;;;;;72.18;22.05;;;2.20;99.90;;;;;;5115947;27;20039;-77
2022/12/09 11:42:21;;;;;;;78.88;22.63;;;2.10;99.90;;;;;;5116068;27;20061;-77
2022/12/09 11:44:50;;;;;;;77.80;22.85;;;2.00;99.90;;;;;;5134092;27;20059;-79
2022/12/09 11:47:45;;;;;;;71.35;22.23;;;2.00;99.90;;;;;;5133903;27;20051;-77
2022/12/09 11:50:30;;;;;;;74.45;22.42;;;2.10;99.90;;;;;;5114181;27;20071;-77
2022/12/09 11:53:31;;;;;;;72.22;22.75;;;2.10;99.90;;;;;;5134680;27;20082;-77
2022/12/09 11:56:05;;;;;;;79.30;22.77;;;2.30;99.90;;;;;;5119657;27;20063;-77
2022/12/09 11:58:53;;;;;;;84.40;23.30;;;2.30;99.90;;;;;;5134605;27;20038;-79
2022/12/09 12:01:33;;;;;;;70.63;23.35;;;2.40;99.90;;;;;;5116070;27;20043;-79
2022/12/09 12:04:05;;;;;;;78.18;23.85;;;2.50;99.90;;;;;;5134133;27;20047;-76
2022/12/09 12:06:49;;;;;;;77.82;24.70;;;2.60;99.90;;;;;;5099025;27;20086;-77
2022/12/09 12:09:28;;;;;;;81.50;23.67;;;2.70;99.90;;;;;;5134570;27;20097;-79
2022/12/09 12:12:19;;;;;;;73.90;23.42;;;2.80;99.90;;;;;;5134584;27;20072;-78
2022/12/09 12:14:45;;;;;;;75.88;23.83;;;2.90;99.90;;;;;;5116645;27;20059;-77
2022/12/09 12:17:20;;;;;;;74.70;23.42;;;2.90;99.90;;;;;;5115094;27;20039;-78
2022/12/09 12:19:51;;;;;;;69.93;22.25;;;3.10;99.90;;;;;;5116205;27;20307;-76
2022/12/09 12:22:49;;;;;;;70.70;22.25;;;3.00;99.90;;;;;;5115882;27;20045;-76
2022/12/09 12:26:13;;;;;;;72.47;22.20;;;3.10;99.90;;;;;;5104367;27;20062;-77
2022/12/09 12:28:41;;;;;;;67.45;19.95;;;3.10;99.90;;;;;;5021503;28;20045;-78
2022/12/09 12:31:25;;;;;;;63.28;19.73;;;3.00;99.90;;;;;;5113993;27;20126;-78
2022/12/09 12:34:14;;;;;;;61.35;20.10;;;3.10;99.90;;;;;;5134319;27;20043;-78
2022/12/09 12:37:12;;;;;;;70.80;21.10;;;3.20;99.90;;;;;;5098984;28;20082;-85
2022/12/09 12:39:40;;;;;;;66.95;20.08;;;3.20;99.90;;;;;;5099037;28;20447;-77
2022/12/09 12:42:39;;;;;;;65.88;18.98;;;3.20;99.90;;;;;;5133703;28;20038;-77
2022/12/09 12:48:23;;;;;;;62.42;18.58;;;3.30;99.90;;;;;;5133510;28;20051;-78
2022/12/09 12:51:16;;;;;;;58.03;17.75;;;3.30;99.90;;;;;;5134060;28;20043;-80
2022/12/09 12:54:04;;;;;;;64.60;18.50;;;3.30;99.90;;;;;;5115661;28;20477;-83
2022/12/09 12:56:46;;;;;;;56.78;14.43;;;3.40;99.90;;;;;;5094290;28;20483;-77
2022/12/09 12:59:36;;;;;;;50.90;14.20;;;3.40;99.90;;;;;;5135486;27;20054;-75